createdAt,value
2023-01-30T00:04:00.938Z,10.10
2023-01-30T00:10:03.361Z,12.73
2023-01-30T00:16:08.722Z,11.13
2023-01-30T00:22:11.293Z,12.27
2023-01-30T00:28:13.823Z,13.30
2023-01-30T00:34:15.866Z,12.57
2023-01-30T00:40:20.805Z,9.57
2023-01-30T00:46:59.287Z,24.00
2023-01-30T00:53:01.777Z,12.87
2023-01-30T00:59:07.240Z,12.83
2023-01-30T01:05:09.687Z,11.47
2023-01-30T01:11:26.201Z,10.50
2023-01-30T01:17:28.653Z,10.83
2023-01-30T01:23:31.103Z,10.30
2023-01-30T01:29:33.576Z,10.47
2023-01-30T01:35:36.049Z,11.17
2023-01-30T01:41:38.494Z,11.30
2023-01-30T01:47:58.020Z,10.30
2023-01-30T01:54:10.485Z,11.17
2023-01-30T02:00:16.013Z,10.33
2023-01-30T02:06:19.426Z,10.50
2023-01-30T02:12:21.897Z,10.70
2023-01-30T02:18:26.970Z,10.77
2023-01-30T02:24:49.661Z,11.10
2023-01-30T02:31:00.587Z,10.83
2023-01-30T02:37:40.984Z,11.80
2023-01-30T02:44:06.524Z,11.70
2023-01-30T02:50:15.020Z,11.30
2023-01-30T02:56:17.471Z,11.30
2023-01-30T03:02:50.801Z,11.47
2023-01-30T03:09:08.143Z,10.57
2023-01-30T03:15:22.092Z,11.70
2023-01-30T03:21:28.602Z,10.77
2023-01-30T03:27:31.058Z,11.60
2023-01-30T03:33:33.546Z,11.80
2023-01-30T03:39:38.956Z,14.00
2023-01-30T03:45:41.420Z,12.30
2023-01-30T03:51:45.691Z,13.40
2023-01-30T03:57:51.351Z,13.53
2023-01-30T04:03:57.814Z,12.33
2023-01-30T04:10:00.349Z,12.33
2023-01-30T04:16:22.818Z,13.30
2023-01-30T04:22:27.011Z,12.50
2023-01-30T04:28:29.708Z,12.37
2023-01-30T04:34:32.165Z,11.80
2023-01-30T04:40:34.608Z,13.70
2023-01-30T04:46:37.072Z,10.60
2023-01-30T04:52:39.967Z,11.87
2023-01-30T04:58:41.971Z,12.23
2023-01-30T05:04:43.738Z,13.37
2023-01-30T05:10:51.903Z,10.97
2023-01-30T05:16:55.955Z,22.00
2023-01-30T05:22:57.875Z,13.83
2023-01-30T05:29:00.338Z,14.10
2023-01-30T05:35:02.812Z,13.90
2023-01-30T05:41:07.469Z,14.17
2023-01-30T05:47:10.699Z,13.67
2023-01-30T05:53:15.175Z,16.73
2023-01-30T05:59:19.638Z,17.53
2023-01-30T06:05:21.623Z,15.73
2023-01-30T06:11:25.591Z,14.43
2023-01-30T06:17:29.959Z,12.73
2023-01-30T06:23:32.524Z,15.07
2023-01-30T06:29:35.015Z,12.13
2023-01-30T06:35:42.469Z,11.53
2023-01-30T06:41:44.476Z,11.23
2023-01-30T06:47:54.462Z,11.13
2023-01-30T06:53:59.848Z,13.93
2023-01-30T07:00:01.891Z,11.53
2023-01-30T07:06:03.912Z,10.60
2023-01-30T07:12:06.237Z,11.47
2023-01-30T07:18:08.761Z,11.83
2023-01-30T07:24:11.184Z,12.27
2023-01-30T07:30:13.653Z,11.83
2023-01-30T07:36:16.118Z,11.83
2023-01-30T07:42:18.597Z,11.40
2023-01-30T07:48:21.085Z,11.67
2023-01-30T07:54:23.027Z,12.20
2023-01-30T08:00:25.280Z,12.83
2023-01-30T08:06:30.439Z,11.87
2023-01-30T08:12:32.903Z,10.73
2023-01-30T08:18:36.347Z,12.57
2023-01-30T08:24:38.077Z,11.83
2023-01-30T08:30:41.937Z,12.53
2023-01-30T08:36:49.837Z,11.67
2023-01-30T08:42:52.275Z,11.43
2023-01-30T08:48:54.695Z,12.13
2023-01-30T08:55:06.088Z,12.47
2023-01-30T09:01:11.074Z,12.03
2023-01-30T09:07:13.152Z,12.87
2023-01-30T09:13:22.972Z,10.97
2023-01-30T09:19:37.226Z,11.03
2023-01-30T09:25:46.658Z,9.87
2023-01-30T09:31:55.548Z,10.87
2023-01-30T09:38:11.038Z,11.50
2023-01-30T09:44:24.120Z,11.37
2023-01-30T09:51:00.749Z,11.27
2023-01-30T09:57:23.251Z,12.53
2023-01-30T10:03:39.736Z,10.63
2023-01-30T10:10:24.220Z,8.27
2023-01-30T10:17:01.768Z,6.60
2023-01-30T10:23:17.198Z,7.93
2023-01-30T10:29:30.062Z,8.03
2023-01-30T10:35:44.542Z,9.93
2023-01-30T10:42:14.104Z,9.73
2023-01-30T10:48:46.401Z,11.00
2023-01-30T10:54:52.484Z,9.73
2023-01-30T11:01:15.242Z,9.27
2023-01-30T11:07:25.187Z,9.67
2023-01-30T11:13:42.230Z,9.47
2023-01-30T11:19:45.144Z,9.13
2023-01-30T11:26:09.170Z,9.43
2023-01-30T11:32:29.494Z,8.00
2023-01-30T11:38:48.705Z,8.43
2023-01-30T11:45:17.592Z,7.93
2023-01-30T11:51:26.809Z,8.07
2023-01-30T11:57:42.385Z,9.83
2023-01-30T12:03:55.866Z,8.90
2023-01-30T12:10:24.208Z,8.97
2023-01-30T12:17:04.761Z,9.20
2023-01-30T12:30:58.144Z,10.53
2023-01-30T12:37:30.038Z,9.10
2023-01-30T12:44:16.380Z,9.00
2023-01-30T12:50:32.541Z,8.83
2023-01-30T12:57:18.116Z,10.10
2023-01-30T13:03:44.666Z,10.40
2023-01-30T13:10:52.061Z,10.83
2023-01-30T13:17:12.683Z,16.87
2023-01-30T13:23:57.292Z,16.73
2023-01-30T13:30:12.999Z,14.33
2023-01-30T13:36:52.177Z,13.50
2023-01-30T13:43:41.984Z,15.97
2023-01-30T13:50:12.796Z,13.50
2023-01-30T13:56:49.856Z,13.53
2023-01-30T14:03:25.769Z,13.83
2023-01-30T14:09:37.267Z,17.03
2023-01-30T14:16:28.638Z,16.53
2023-01-30T14:22:46.685Z,19.80
2023-01-30T14:28:59.977Z,22.67
2023-01-30T14:35:17.173Z,23.77
2023-01-30T14:41:35.225Z,20.93
2023-01-30T14:47:46.871Z,24.07
2023-01-30T14:54:03.358Z,23.00
2023-01-30T15:00:40.216Z,19.40
2023-01-30T15:06:50.068Z,18.77
2023-01-30T15:13:36.874Z,23.67
2023-01-30T15:20:21.324Z,19.97
2023-01-30T15:26:52.951Z,18.70
2023-01-30T15:33:30.863Z,18.57
2023-01-30T15:39:33.946Z,15.57
2023-01-30T15:52:18.019Z,11.67
2023-01-30T15:58:26.392Z,10.53
2023-01-30T16:04:37.008Z,11.70
2023-01-30T16:10:51.559Z,10.43
2023-01-30T16:17:12.513Z,10.10
2023-01-30T16:23:30.814Z,8.73
2023-01-30T16:29:57.764Z,9.47
2023-01-30T16:36:04.963Z,7.23
2023-01-30T16:42:35.110Z,7.13
2023-01-30T16:48:41.675Z,7.07
2023-01-30T16:55:00.170Z,10.53
2023-01-30T17:01:18.357Z,7.90
2023-01-30T17:14:18.608Z,8.47
2023-01-30T17:26:40.704Z,10.03
2023-01-30T17:32:58.485Z,12.00
2023-01-30T17:39:00.466Z,9.53
2023-01-30T17:45:03.318Z,12.90
2023-01-30T17:51:05.822Z,19.47
2023-01-30T17:57:12.584Z,17.70
2023-01-30T18:03:15.808Z,15.47
2023-01-30T18:09:23.268Z,14.20
2023-01-30T18:15:26.739Z,15.53
2023-01-30T18:21:29.189Z,12.77
2023-01-30T18:27:35.062Z,13.80
2023-01-30T18:33:38.101Z,12.10
2023-01-30T18:39:52.036Z,12.57
2023-01-30T18:46:09.208Z,7.93
2023-01-30T18:52:17.639Z,6.93
2023-01-30T18:58:35.799Z,6.07
2023-01-30T19:04:38.631Z,7.03
2023-01-30T19:10:41.060Z,7.07
2023-01-30T19:16:45.997Z,7.63
2023-01-30T19:22:57.529Z,7.03
2023-01-30T19:29:01.511Z,6.53
2023-01-30T19:35:07.970Z,6.90
2023-01-30T19:41:18.471Z,7.17
2023-01-30T19:47:30.963Z,6.77
2023-01-30T19:53:37.430Z,5.97
2023-01-30T19:59:40.895Z,8.40
2023-01-30T20:05:45.848Z,8.33
2023-01-30T20:11:49.832Z,9.30
2023-01-30T20:18:02.069Z,11.43
2023-01-30T20:24:20.054Z,8.70
2023-01-30T20:30:26.285Z,7.33
2023-01-30T20:36:30.621Z,8.97
2023-01-30T20:42:36.204Z,7.83
2023-01-30T20:48:44.070Z,12.97
2023-01-30T21:01:26.868Z,14.53
2023-01-30T21:07:29.226Z,12.27
2023-01-30T21:13:39.423Z,10.57
2023-01-30T21:19:43.527Z,13.63
2023-01-30T21:25:46.000Z,18.23
2023-01-30T21:31:49.923Z,13.77
2023-01-30T21:38:19.679Z,15.40
2023-01-30T21:44:30.158Z,13.50
2023-01-30T21:50:37.952Z,11.90
2023-01-30T21:56:40.753Z,9.60
2023-01-30T22:02:56.718Z,7.80
2023-01-30T22:09:08.043Z,5.43
2023-01-30T22:15:22.256Z,5.87
2023-01-30T22:21:29.154Z,5.00
2023-01-30T22:27:31.975Z,5.83
2023-01-30T22:33:37.115Z,8.60
2023-01-30T22:39:39.561Z,8.97
2023-01-30T22:45:42.042Z,7.27
2023-01-30T22:51:46.578Z,6.37
2023-01-30T22:57:59.077Z,6.43
2023-01-30T23:04:27.616Z,5.57
2023-01-30T23:10:30.084Z,5.87
2023-01-30T23:16:48.779Z,5.47
2023-01-30T23:23:07.894Z,4.63
2023-01-30T23:29:29.063Z,4.90
2023-01-30T23:35:50.521Z,6.50
2023-01-30T23:42:01.303Z,6.23
2023-01-30T23:48:19.009Z,5.27
2023-01-30T23:54:33.117Z,6.27
